• Join FlightAware (Why Join?)
  • Login
  • US Flag 
08:37PM EDT


 

Airport Tracker/Info


-or-


 

Live Flight TrackerFlight Track Log ✈ SWA1250 ✈ 21-May-2013 ✈ KFNT - KMCO

Flight Track Log - Related Links

Times and Time Zones

All times are in EDT time to prevent confusion due to time zone crossing. See the SWA1250 flight status page for this flight to view local times or setup timezone preferences in your user account.

Time Position Orientation Groundspeed Altitude Reporting Facility
EDT Latitude Longitude Course Direction KTS MPH feet Rate Location/Type
11:38AM 43.0133 -83.8089 61° Northeast 176 203 5,200  Level Cleveland Center
11:39AM 43.0511 -83.7172 61° Northeast 176 203 9,000 3,900 Climbing Cleveland Center
11:40AM 43.0586 -83.6008 85° East 257 296 13,100 4,080 Climbing Cleveland Center
11:41AM 42.9819 -83.5772 167° South 192 221 17,200 3,300 Climbing Cleveland Center
11:42AM 42.8942 -83.5900 186° South 242 278 19,700 2,760 Climbing Cleveland Center
11:43AM 42.7978 -83.6108 189° South 311 358 22,800 2,880 Climbing Cleveland Center
11:44AM 42.6950 -83.6286 187° South 349 402 25,500 2,580 Climbing Cleveland Center
11:45AM 42.5842 -83.6486 188° South 381 438 28,000 2,400 Climbing Cleveland Center
11:46AM 42.4689 -83.6683 187° South 405 466 30,300 2,220 Climbing Cleveland Center
11:47AM 42.3536 -83.6908 188° South 417 480 32,500 2,220 Climbing Cleveland Center
11:48AM 42.2486 -83.7139 189° South 426 490 34,800 2,040 Climbing Cleveland Center
11:49AM 42.1314 -83.7303 186° South 426 490 36,600 1,800 Climbing Cleveland Center
11:50AM 42.0164 -83.7500 187° South 426 490 38,500 1,680 Climbing Cleveland Center
11:51AM 41.9031 -83.7694 187° South 426 490 40,000 720 Climbing Cleveland Center
11:52AM 41.7881 -83.7886 187° South 426 490 40,000  Level Cleveland Center
11:53AM 41.6733 -83.7914 181° South 426 490 40,000  Level Cleveland Center
11:54AM 41.5544 -83.7883 179° South 426 490 40,000  Level Cleveland Center
11:55AM 41.4358 -83.7822 178° South 420 483 40,000  Level Cleveland Center
11:56AM 41.3150 -83.7736 177° South 420 483 40,000 -240 Level Cleveland Center
11:57AM 41.1964 -83.7678 178° South 425 489 39,600 -540 Descending Cleveland Center
11:58AM 41.0819 -83.7594 177° South 430 495 39,000 -300 Descending Cleveland Center
11:59AM 40.9589 -83.7517 177° South 434 499 39,000  Level Indianapolis Center
12:00PM 40.8361 -83.7453 178° South 436 502 39,000  Level Indianapolis Center
12:01PM 40.6933 -83.7383 178° South 437 503 39,000  Level Indianapolis Center
12:02PM 40.5719 -83.7322 178° South 432 497 39,000  Level Indianapolis Center
12:03PM 40.4500 -83.7258 178° South 434 499 39,000  Level Indianapolis Center
12:04PM 40.3286 -83.7189 178° South 434 499 39,000  Level Indianapolis Center
12:05PM 40.2058 -83.7125 178° South 438 504 39,000  Level Indianapolis Center
12:06PM 40.0858 -83.7081 178° South 438 504 39,000  Level Indianapolis Center
12:07PM 39.9589 -83.7008 178° South 444 511 39,000  Level Indianapolis Center
12:08PM 39.8389 -83.6947 178° South 445 512 39,000  Level Indianapolis Center
12:09PM 39.6936 -83.6878 178° South 445 512 39,000  Level Indianapolis Center
12:10PM 39.5711 -83.6814 178° South 440 506 39,000  Level Indianapolis Center
12:11PM 39.4489 -83.6747 178° South 438 504 39,000  Level Indianapolis Center
12:12PM 39.3272 -83.6675 177° South 433 498 39,000 -420 Level Indianapolis Center
12:13PM 39.2053 -83.6622 178° South 436 502 38,200 -900 Descending Indianapolis Center
12:14PM 39.0856 -83.6564 178° South 427 491 37,200 -1,080 Descending Indianapolis Center
12:16PM 38.8408 -83.6442 178° South 442 509 35,000 -720 Descending Indianapolis Center
12:17PM 38.7156 -83.6389 178° South 446 513 35,000  Level Indianapolis Center
12:18PM 38.5817 -83.6306 177° South 442 509 35,000  Level Indianapolis Center
12:19PM 38.4575 -83.6253 178° South 444 511 35,000  Level Indianapolis Center
12:21PM 38.2902 -83.6010 174° South  Level FlightAware Approximate
12:21PM 38.2089 -83.6131 174° South 445 512 35,000  Level Indianapolis Center
12:22PM 38.0847 -83.6069 178° South 446 513 35,000  Level Indianapolis Center
12:23PM 37.9392 -83.6008 178° South 448 516 35,000  Level Indianapolis Center
12:24PM 37.8156 -83.5942 178° South 446 513 35,000  Level Indianapolis Center
12:25PM 37.6911 -83.5878 178° South 447 514 35,000  Level Indianapolis Center
12:26PM 37.5642 -83.5822 178° South 454 522 35,000  Level Indianapolis Center
12:27PM 37.4364 -83.5783 179° South 458 527 35,000  Level Indianapolis Center
12:28PM 37.3100 -83.6083 191° South 463 533 35,000  Level Indianapolis Center
12:29PM 37.1856 -83.6378 191° South 458 527 35,000  Level Indianapolis Center
12:30PM 37.0397 -83.6711 190° South 457 526 35,000  Level Indianapolis Center
12:31PM 36.9164 -83.7003 191° South 455 524 35,000  Level Indianapolis Center
12:32PM 36.7925 -83.7286 190° South 452 520 35,000  Level Indianapolis Center
12:33PM 36.6672 -83.7581 191° South 458 527 35,000  Level Indianapolis Center
12:34PM 36.5431 -83.7825 189° South 452 520 35,000  Level Indianapolis Center
12:35PM 36.4186 -83.7689 175° South 448 516 35,000  Level Indianapolis Center
12:36PM 36.2936 -83.7589 176° South 448 516 35,000  Level Indianapolis Center
12:37PM 36.1683 -83.7464 175° South 449 517 35,000  Level Indianapolis Center
12:39PM 36.0142 -83.7333 176° South 442 509 35,000  Level Atlanta Center
12:40PM 35.8911 -83.7236 176° South 447 514 35,000  Level Atlanta Center
12:41PM 35.7658 -83.7111 175° South 447 514 35,000  Level Atlanta Center
12:42PM 35.6428 -83.7014 176° South 447 514 35,000  Level Atlanta Center
12:43PM 35.5194 -83.6892 175° South 441 507 35,000  Level Atlanta Center
12:44PM 35.3964 -83.6769 175° South 441 507 35,000  Level Atlanta Center
12:45PM 35.2733 -83.6647 175° South 441 507 35,000  Level Atlanta Center
12:46PM 35.1481 -83.6553 176° South 441 507 35,000  Level Atlanta Center
12:47PM 35.0208 -83.6431 176° South 446 513 35,000  Level Atlanta Center
12:48PM 34.8850 -83.6286 175° South 451 519 35,000  Level Atlanta Center
12:49PM 34.7578 -83.6192 177° South 451 519 35,000  Level Atlanta Center
12:50PM 34.6303 -83.6072 176° South 463 533 35,000  Level Atlanta Center
12:51PM 34.5178 -83.5975 176° South 457 526 35,000  Level Atlanta Center
12:52PM 34.3903 -83.5856 176° South 462 532 35,000  Level Atlanta Center
12:53PM 34.2650 -83.5739 176° South 462 532 35,000  Level Atlanta Center
12:54PM 34.1336 -83.5619 176° South 462 532 35,000  Level Atlanta Center
12:55PM 34.0083 -83.5528 177° South 462 532 35,000  Level Atlanta Center
12:56PM 33.8706 -83.5408 176° South 462 532 35,000  Level Atlanta Center
12:57PM 33.7431 -83.5292 176° South 462 532 35,000  Level Atlanta Center
12:58PM 33.6158 -83.5175 176° South 462 532 35,000  Level Atlanta Center
12:59PM 33.4906 -83.5083 177° South 462 532 35,000  Level Atlanta Center
01:00PM 33.3653 -83.4967 176° South 462 532 35,000  Level Atlanta Center
01:01PM 33.2336 -83.4875 177° South 462 532 35,000  Level Atlanta Center
01:02PM 33.1103 -83.4758 175° South 457 526 35,000  Level Atlanta Center
01:03PM 32.9850 -83.4667 176° South 463 533 35,000  Level Atlanta Center
01:04PM 32.8556 -83.4553 176° South 463 533 35,000  Level Atlanta Center
01:05PM 32.7303 -83.4436 176° South 463 533 35,000  Level Atlanta Center
01:06PM 32.6031 -83.4322 176° South 458 527 35,000  Level Atlanta Center
01:07PM 32.4736 -83.4233 177° South 463 533 35,000  Level Atlanta Center
01:08PM 32.3461 -83.4094 175° South 463 533 35,000  Level Atlanta Center
01:09PM 32.2186 -83.4006 177° South 463 533 35,000 -540 Level Atlanta Center
01:10PM 32.0933 -83.3892 176° South 463 533 34,000 -1,020 Descending Atlanta Center
01:11PM 31.9661 -83.3753 175° South 463 533 33,000 -780 Descending Atlanta Center
01:11PM 31.9172 -83.3722 177° South 459 528 33,000  Level Jacksonville Center
01:12PM 31.8128 -83.3644 176° South 459 528 33,000  Level Jacksonville Center
01:13PM 31.6750 -83.3517 175° South 459 528 33,000  Level Jacksonville Center
01:14PM 31.5478 -83.3411 176° South 459 528 33,000  Level Jacksonville Center
01:15PM 31.4308 -83.2967 162° South 449 517 33,000  Level Jacksonville Center
01:16PM 31.3183 -83.2281 152° Southeast 449 517 33,000 -60 Level Jacksonville Center
01:17PM 31.2078 -83.1622 153° Southeast 449 517 32,900 -600 Descending Jacksonville Center
01:18PM 31.0911 -83.1086 159° South 449 517 31,900 -960 Descending Jacksonville Center
01:19PM 30.9700 -83.1203 185° South 426 490 31,000 -480 Descending Jacksonville Center
01:20PM 30.8467 -83.1344 186° South 431 496 31,000  Level Jacksonville Center
01:21PM 30.7236 -83.1464 185° South 437 503 31,000  Level Jacksonville Center
01:22PM 30.6003 -83.1581 185° South 443 510 31,000  Level Jacksonville Center
01:23PM 30.4728 -83.1744 186° South 449 517 31,000  Level Jacksonville Center
01:24PM 30.3475 -83.1886 186° South 454 522 31,000  Level Jacksonville Center
01:25PM 30.2222 -83.2003 185° South 454 522 31,000  Level Jacksonville Center
01:26PM 30.0908 -83.2167 186° South 466 536 31,000  Level Jacksonville Center
01:27PM 29.9508 -83.2331 186° South 466 536 31,000  Level Jacksonville Center
01:28PM 29.8256 -83.2469 185° South 466 536 31,000  Level Jacksonville Center
01:29PM 29.7044 -83.2608 186° South 471 542 31,000  Level Jacksonville Center
01:30PM 29.5728 -83.2722 184° South 476 548 31,000  Level Jacksonville Center
01:31PM 29.4286 -83.2861 185° South 476 548 31,000 -480 Level Jacksonville Center
01:32PM 29.3014 -83.2997 185° South 476 548 30,100 -960 Descending Jacksonville Center
01:33PM 29.1739 -83.3136 185° South 476 548 29,100 -1,020 Descending Jacksonville Center
01:34PM 29.0467 -83.3250 184° South 471 542 28,100 -1,080 Descending Jacksonville Center
01:35PM 28.9236 -83.3194 178° South 461 531 27,000 -1,080 Descending Jacksonville Center
01:36PM 28.8153 -83.2528 152° Southeast 432 497 26,000 -1,020 Descending Jacksonville Center
01:37PM 28.7067 -83.1836 151° Southeast 442 509 25,000 -1,020 Descending Jacksonville Center
01:38PM 28.6006 -83.1194 152° Southeast 442 509 24,000 -1,020 Descending Jacksonville Center
01:39PM 28.4983 -83.0508 149° Southeast 432 497 23,000 -960 Descending Jacksonville Center
01:40PM 28.4044 -82.9989 154° Southeast 426 490 22,100 -960 Descending Jacksonville Center
01:41PM 28.3064 -82.9350 150° Southeast 415 478 21,100 -720 Descending Jacksonville Center
01:42PM 28.2364 -82.8908 151° Southeast 407 468 21,000 -120 Descending Miami Center
01:43PM 28.1592 -82.8442 152° Southeast 366 421 21,000 -180 Level Miami Center
01:44PM 28.0739 -82.7906 151° Southeast 354 407 20,700 -720 Descending Miami Center
01:45PM 27.9783 -82.7267 149° Southeast 354 407 19,600 -1,080 Descending Miami Center
01:46PM 27.9014 -82.6711 147° Southeast 346 398 18,600 -900 Descending Miami Center
01:47PM 27.8525 -82.5864 123° Southeast 332 382 17,900 -840 Descending Miami Center
01:48PM 27.8406 -82.4708 97° East 346 398 17,000 -1,500 Descending Miami Center
01:49PM 27.8781 -82.3622 69° East 331 381 15,000 -1,020 Descending Miami Center
01:50PM 27.9114 -82.2558 70° East 343 395 15,000 -420 Level Miami Center
01:51PM 27.9667 -82.0667 72° East 361 415 14,000 -780 Descending Orlando TRACON
01:52PM 28.0167 -81.9667 60° Northeast 360 414 13,000 -540 Descending Orlando TRACON
01:53PM 28.0500 -81.8667 69° East 354 407 13,000  Level Orlando TRACON
01:54PM 28.1000 -81.7667 60° Northeast 353 406 13,000  Level Orlando TRACON
01:55PM 28.1667 -81.6833 48° Northeast 361 415 13,000 -1,200 Level Orlando TRACON
01:56PM 28.2000 -81.5833 69° East 353 406 10,700 -1,500 Descending Orlando TRACON
01:57PM 28.2500 -81.4833 60° Northeast 322 371 10,000 -780 Descending Orlando TRACON
01:58PM 28.2833 -81.4000 66° East 309 356 9,200 -540 Descending Orlando TRACON
01:59PM 28.3000 -81.3000 79° East 295 339 9,000 -600 Descending Orlando TRACON
02:00PM 28.3667 -81.2500 33° Northeast 286 329 8,000 -1,260 Descending Orlando TRACON
02:01PM 28.4500 -81.2333 10° North 278 320 6,500 -1,200 Descending Orlando TRACON
02:02PM 28.5167 -81.2000 24° Northeast 219 252 5,600 -1,020 Descending Orlando TRACON
02:03PM 28.5667 -81.2167 344° North 205 236 4,500 -1,560 Descending Orlando TRACON
02:04PM 28.5667 -81.2833 270° West 199 229 2,500 -1,200 Descending Orlando TRACON
02:05PM 28.5167 -81.2833 180° South 169 194 2,100 -780 Descending Orlando TRACON
02:06PM 28.4667 -81.3000 196° South 136 157 1,000 -1,140 Descending Orlando TRACON